Impacts TAF Board INFO
FOR SITUATIONAL AWARENESS. NOT TO BE USED FOR FLIGHT PLANNING PURPOSES.
IDs:

KMOB - Mobile Rgnl, AL, US

Issued at 1720 UTC 15 Aug 2018
Updated at 2044 UTC 15 Aug 2018
Potential Impact None Slight Moderate High
Time<<16/09Z 16/10Z 16/11Z 16/12Z 16/13Z 16/14Z 16/15Z 16/16Z 16/17Z 16/18Z 16/19Z 16/20Z 16/21Z>>
Type PRVL PRVL PRVL PRVL PRVL PRVL PRVL PRVL PRVL
VIS >6 >6 >6 >6 >6 >6 >6 >6 >6
CIG 250 250 250 250 250 250 250 250 250
Cover BKN BKN BKN BKN BKN BKN BKN BKN BKN
FltCat VFR VFR VFR VFR VFR VFR VFR VFR VFR
WX -- -- -- -- -- -- -- -- --
WDir 160 160 160 160 160 160 160 160 160
WSpd 3 3 3 3 3 3 3 3 3
WGst -- -- -- -- -- -- -- -- --

Raw TAF
KMOB 151720Z 1518/1618 13008KT P6SM SCT030
  TEMPO 1520/1524 VRB15G25KT 3SM TSRA BKN025CB OVC060
  FM160100 16003KT P6SM SCT080 BKN250


METAR Board
Radar Display
Forecast Discussion

FOR SITUATIONAL AWARENESS. NOT TO BE USED FOR FLIGHT PLANNING PURPOSES.